sensor_id;sensor_type;location;lat;lon;timestamp;P1;durP1;ratioP1;P2;durP2;ratioP2
14738;SDS011;7461;52.440;13.540;2024-02-21T00:00:21;20.33;;;9.80;;
14738;SDS011;7461;52.440;13.540;2024-02-21T00:02:48;19.45;;;9.68;;
14738;SDS011;7461;52.440;13.540;2024-02-21T00:05:16;17.70;;;10.60;;
14738;SDS011;7461;52.440;13.540;2024-02-21T00:07:43;22.83;;;10.65;;
14738;SDS011;7461;52.440;13.540;2024-02-21T00:10:10;22.08;;;9.15;;
14738;SDS011;7461;52.440;13.540;2024-02-21T00:12:39;19.77;;;10.30;;
14738;SDS011;7461;52.440;13.540;2024-02-21T00:15:07;18.98;;;9.32;;
14738;SDS011;7461;52.440;13.540;2024-02-21T00:17:34;13.85;;;9.30;;
14738;SDS011;7461;52.440;13.540;2024-02-21T00:20:05;13.32;;;8.35;;
14738;SDS011;7461;52.440;13.540;2024-02-21T00:22:32;13.60;;;9.07;;
14738;SDS011;7461;52.440;13.540;2024-02-21T00:25:00;18.88;;;9.60;;
14738;SDS011;7461;52.440;13.540;2024-02-21T00:27:27;20.25;;;10.27;;
14738;SDS011;7461;52.440;13.540;2024-02-21T00:29:56;20.30;;;9.95;;
14738;SDS011;7461;52.440;13.540;2024-02-21T00:32:23;15.05;;;10.90;;
14738;SDS011;7461;52.440;13.540;2024-02-21T00:34:50;20.42;;;10.30;;
14738;SDS011;7461;52.440;13.540;2024-02-21T00:37:17;22.35;;;10.68;;
14738;SDS011;7461;52.440;13.540;2024-02-21T00:39:44;23.00;;;9.27;;
14738;SDS011;7461;52.440;13.540;2024-02-21T00:42:12;14.63;;;8.40;;
14738;SDS011;7461;52.440;13.540;2024-02-21T00:44:39;21.23;;;10.05;;
14738;SDS011;7461;52.440;13.540;2024-02-21T00:47:07;18.65;;;9.60;;
14738;SDS011;7461;52.440;13.540;2024-02-21T00:49:34;16.88;;;8.57;;
14738;SDS011;7461;52.440;13.540;2024-02-21T00:52:02;16.75;;;9.05;;
14738;SDS011;7461;52.440;13.540;2024-02-21T00:54:29;21.42;;;9.50;;
14738;SDS011;7461;52.440;13.540;2024-02-21T00:56:56;21.00;;;9.70;;
14738;SDS011;7461;52.440;13.540;2024-02-21T00:59:23;20.42;;;12.35;;
14738;SDS011;7461;52.440;13.540;2024-02-21T01:01:51;25.55;;;10.85;;
14738;SDS011;7461;52.440;13.540;2024-02-21T01:04:19;21.55;;;10.13;;
14738;SDS011;7461;52.440;13.540;2024-02-21T01:06:46;17.27;;;10.63;;
14738;SDS011;7461;52.440;13.540;2024-02-21T01:09:13;15.82;;;9.32;;
14738;SDS011;7461;52.440;13.540;2024-02-21T01:11:41;20.65;;;9.75;;
14738;SDS011;7461;52.440;13.540;2024-02-21T01:14:08;19.70;;;9.60;;
14738;SDS011;7461;52.440;13.540;2024-02-21T01:16:36;15.60;;;8.05;;
14738;SDS011;7461;52.440;13.540;2024-02-21T01:19:03;10.13;;;8.13;;
14738;SDS011;7461;52.440;13.540;2024-02-21T01:21:31;15.45;;;9.15;;
14738;SDS011;7461;52.440;13.540;2024-02-21T01:23:59;17.70;;;8.80;;
14738;SDS011;7461;52.440;13.540;2024-02-21T01:26:26;23.20;;;9.43;;
14738;SDS011;7461;52.440;13.540;2024-02-21T01:28:53;19.65;;;10.48;;
14738;SDS011;7461;52.440;13.540;2024-02-21T01:31:20;16.70;;;9.68;;
14738;SDS011;7461;52.440;13.540;2024-02-21T01:33:47;15.80;;;8.55;;
14738;SDS011;7461;52.440;13.540;2024-02-21T01:36:15;19.52;;;10.25;;
14738;SDS011;7461;52.440;13.540;2024-02-21T01:38:43;17.42;;;9.60;;
14738;SDS011;7461;52.440;13.540;2024-02-21T01:41:10;13.57;;;9.18;;
14738;SDS011;7461;52.440;13.540;2024-02-21T01:43:38;19.17;;;10.15;;
14738;SDS011;7461;52.440;13.540;2024-02-21T01:46:05;16.63;;;9.63;;
14738;SDS011;7461;52.440;13.540;2024-02-21T01:48:33;18.17;;;11.18;;
14738;SDS011;7461;52.440;13.540;2024-02-21T01:51:00;17.48;;;8.85;;
14738;SDS011;7461;52.440;13.540;2024-02-21T01:53:29;19.15;;;10.82;;
14738;SDS011;7461;52.440;13.540;2024-02-21T01:55:58;15.20;;;8.50;;
14738;SDS011;7461;52.440;13.540;2024-02-21T01:58:25;15.00;;;9.23;;
14738;SDS011;7461;52.440;13.540;2024-02-21T02:00:53;16.73;;;8.60;;
14738;SDS011;7461;52.440;13.540;2024-02-21T02:03:20;9.00;;;6.65;;
14738;SDS011;7461;52.440;13.540;2024-02-21T02:05:49;13.82;;;7.80;;
14738;SDS011;7461;52.440;13.540;2024-02-21T02:08:17;13.52;;;7.55;;
14738;SDS011;7461;52.440;13.540;2024-02-21T02:10:47;17.02;;;7.95;;
14738;SDS011;7461;52.440;13.540;2024-02-21T02:13:16;15.40;;;6.68;;
14738;SDS011;7461;52.440;13.540;2024-02-21T02:15:44;16.70;;;7.72;;
14738;SDS011;7461;52.440;13.540;2024-02-21T02:18:12;16.55;;;8.25;;
14738;SDS011;7461;52.440;13.540;2024-02-21T02:20:39;17.40;;;7.85;;
14738;SDS011;7461;52.440;13.540;2024-02-21T02:23:07;11.88;;;6.55;;
14738;SDS011;7461;52.440;13.540;2024-02-21T02:25:38;16.67;;;7.72;;
14738;SDS011;7461;52.440;13.540;2024-02-21T02:28:06;18.92;;;8.77;;
14738;SDS011;7461;52.440;13.540;2024-02-21T02:30:34;18.23;;;8.25;;
14738;SDS011;7461;52.440;13.540;2024-02-21T02:33:02;18.33;;;7.45;;
14738;SDS011;7461;52.440;13.540;2024-02-21T02:35:29;14.18;;;8.23;;
14738;SDS011;7461;52.440;13.540;2024-02-21T02:37:57;14.90;;;8.73;;
14738;SDS011;7461;52.440;13.540;2024-02-21T02:40:24;18.05;;;8.02;;
14738;SDS011;7461;52.440;13.540;2024-02-21T02:42:52;12.45;;;6.95;;
14738;SDS011;7461;52.440;13.540;2024-02-21T02:45:21;14.65;;;6.80;;
14738;SDS011;7461;52.440;13.540;2024-02-21T02:47:49;13.18;;;8.15;;
14738;SDS011;7461;52.440;13.540;2024-02-21T02:50:16;22.17;;;9.88;;
14738;SDS011;7461;52.440;13.540;2024-02-21T02:52:43;14.95;;;8.80;;
14738;SDS011;7461;52.440;13.540;2024-02-21T02:55:10;20.83;;;7.57;;
14738;SDS011;7461;52.440;13.540;2024-02-21T02:57:38;14.95;;;8.13;;
14738;SDS011;7461;52.440;13.540;2024-02-21T03:00:08;20.38;;;8.63;;
14738;SDS011;7461;52.440;13.540;2024-02-21T03:02:37;15.63;;;8.23;;
14738;SDS011;7461;52.440;13.540;2024-02-21T03:05:11;13.02;;;9.65;;
14738;SDS011;7461;52.440;13.540;2024-02-21T03:07:38;17.42;;;8.63;;
14738;SDS011;7461;52.440;13.540;2024-02-21T03:10:06;16.80;;;8.70;;
14738;SDS011;7461;52.440;13.540;2024-02-21T03:12:33;14.35;;;7.75;;
14738;SDS011;7461;52.440;13.540;2024-02-21T03:15:00;15.18;;;7.90;;
14738;SDS011;7461;52.440;13.540;2024-02-21T03:17:29;15.75;;;8.52;;
14738;SDS011;7461;52.440;13.540;2024-02-21T03:19:56;18.85;;;9.55;;
14738;SDS011;7461;52.440;13.540;2024-02-21T03:22:25;13.88;;;7.90;;
14738;SDS011;7461;52.440;13.540;2024-02-21T03:24:52;12.20;;;8.57;;
14738;SDS011;7461;52.440;13.540;2024-02-21T03:27:19;16.80;;;8.05;;
14738;SDS011;7461;52.440;13.540;2024-02-21T03:29:46;20.30;;;8.57;;
14738;SDS011;7461;52.440;13.540;2024-02-21T03:32:13;15.10;;;9.25;;
14738;SDS011;7461;52.440;13.540;2024-02-21T03:34:42;15.43;;;8.80;;
14738;SDS011;7461;52.440;13.540;2024-02-21T03:37:09;21.65;;;9.68;;
14738;SDS011;7461;52.440;13.540;2024-02-21T03:39:38;19.67;;;9.93;;
14738;SDS011;7461;52.440;13.540;2024-02-21T03:42:06;21.35;;;10.40;;
14738;SDS011;7461;52.440;13.540;2024-02-21T03:44:33;17.27;;;9.98;;
14738;SDS011;7461;52.440;13.540;2024-02-21T03:47:00;15.30;;;10.23;;
14738;SDS011;7461;52.440;13.540;2024-02-21T03:49:27;21.15;;;11.07;;
14738;SDS011;7461;52.440;13.540;2024-02-21T03:51:56;10.25;;;8.93;;
14738;SDS011;7461;52.440;13.540;2024-02-21T03:54:23;15.02;;;9.45;;
14738;SDS011;7461;52.440;13.540;2024-02-21T03:56:50;20.02;;;10.45;;
14738;SDS011;7461;52.440;13.540;2024-02-21T03:59:18;16.92;;;10.45;;
14738;SDS011;7461;52.440;13.540;2024-02-21T04:01:45;24.45;;;11.13;;
14738;SDS011;7461;52.440;13.540;2024-02-21T04:04:12;15.38;;;11.02;;
14738;SDS011;7461;52.440;13.540;2024-02-21T04:06:45;16.33;;;10.27;;
14738;SDS011;7461;52.440;13.540;2024-02-21T04:09:14;21.58;;;10.93;;
14738;SDS011;7461;52.440;13.540;2024-02-21T04:11:42;13.63;;;10.55;;
14738;SDS011;7461;52.440;13.540;2024-02-21T04:14:09;15.27;;;10.63;;
14738;SDS011;7461;52.440;13.540;2024-02-21T04:16:36;18.67;;;10.88;;
14738;SDS011;7461;52.440;13.540;2024-02-21T04:19:03;18.45;;;10.55;;
14738;SDS011;7461;52.440;13.540;2024-02-21T04:21:30;18.42;;;10.40;;
14738;SDS011;7461;52.440;13.540;2024-02-21T04:23:57;28.75;;;14.10;;
14738;SDS011;7461;52.440;13.540;2024-02-21T04:26:26;21.70;;;12.07;;
14738;SDS011;7461;52.440;13.540;2024-02-21T04:28:53;18.13;;;11.93;;
14738;SDS011;7461;52.440;13.540;2024-02-21T04:31:20;17.10;;;11.52;;
14738;SDS011;7461;52.440;13.540;2024-02-21T04:33:48;18.33;;;10.98;;
14738;SDS011;7461;52.440;13.540;2024-02-21T04:36:15;19.70;;;11.52;;
14738;SDS011;7461;52.440;13.540;2024-02-21T04:38:42;19.92;;;13.90;;
14738;SDS011;7461;52.440;13.540;2024-02-21T04:41:09;21.58;;;12.55;;
14738;SDS011;7461;52.440;13.540;2024-02-21T04:43:38;22.83;;;13.85;;
14738;SDS011;7461;52.440;13.540;2024-02-21T04:46:05;23.00;;;11.43;;
14738;SDS011;7461;52.440;13.540;2024-02-21T04:48:33;28.17;;;13.20;;
14738;SDS011;7461;52.440;13.540;2024-02-21T04:51:00;17.98;;;12.20;;
14738;SDS011;7461;52.440;13.540;2024-02-21T04:53:27;15.48;;;11.68;;
14738;SDS011;7461;52.440;13.540;2024-02-21T04:55:54;14.85;;;11.15;;
14738;SDS011;7461;52.440;13.540;2024-02-21T04:58:21;18.67;;;12.48;;
14738;SDS011;7461;52.440;13.540;2024-02-21T05:00:50;14.82;;;10.70;;
14738;SDS011;7461;52.440;13.540;2024-02-21T05:03:18;18.15;;;11.43;;
14738;SDS011;7461;52.440;13.540;2024-02-21T05:05:45;14.93;;;12.60;;
14738;SDS011;7461;52.440;13.540;2024-02-21T05:08:13;23.75;;;13.63;;
14738;SDS011;7461;52.440;13.540;2024-02-21T05:10:40;19.67;;;10.73;;
14738;SDS011;7461;52.440;13.540;2024-02-21T05:13:07;20.85;;;11.45;;
14738;SDS011;7461;52.440;13.540;2024-02-21T05:15:35;20.02;;;13.02;;
14738;SDS011;7461;52.440;13.540;2024-02-21T05:18:03;21.85;;;12.95;;
14738;SDS011;7461;52.440;13.540;2024-02-21T05:20:31;21.90;;;13.43;;
14738;SDS011;7461;52.440;13.540;2024-02-21T05:22:58;24.70;;;13.02;;
14738;SDS011;7461;52.440;13.540;2024-02-21T05:25:25;18.45;;;13.43;;
14738;SDS011;7461;52.440;13.540;2024-02-21T05:27:52;27.23;;;15.50;;
14738;SDS011;7461;52.440;13.540;2024-02-21T05:30:20;23.50;;;14.57;;
14738;SDS011;7461;52.440;13.540;2024-02-21T05:32:48;17.50;;;11.98;;
14738;SDS011;7461;52.440;13.540;2024-02-21T05:35:16;21.95;;;14.80;;
14738;SDS011;7461;52.440;13.540;2024-02-21T05:37:44;25.63;;;15.50;;
14738;SDS011;7461;52.440;13.540;2024-02-21T05:40:13;27.73;;;14.98;;
14738;SDS011;7461;52.440;13.540;2024-02-21T05:42:40;23.33;;;15.13;;
14738;SDS011;7461;52.440;13.540;2024-02-21T05:45:08;22.83;;;13.88;;
14738;SDS011;7461;52.440;13.540;2024-02-21T05:47:35;23.40;;;15.05;;
14738;SDS011;7461;52.440;13.540;2024-02-21T05:50:02;21.25;;;14.60;;
14738;SDS011;7461;52.440;13.540;2024-02-21T05:52:31;23.50;;;15.85;;
14738;SDS011;7461;52.440;13.540;2024-02-21T05:54:58;19.20;;;12.70;;
14738;SDS011;7461;52.440;13.540;2024-02-21T05:57:25;31.13;;;14.38;;
14738;SDS011;7461;52.440;13.540;2024-02-21T05:59:52;20.20;;;15.27;;
14738;SDS011;7461;52.440;13.540;2024-02-21T06:02:20;18.73;;;14.98;;
14738;SDS011;7461;52.440;13.540;2024-02-21T06:04:47;28.17;;;14.90;;
14738;SDS011;7461;52.440;13.540;2024-02-21T06:07:14;22.17;;;14.73;;
14738;SDS011;7461;52.440;13.540;2024-02-21T06:09:43;19.20;;;14.48;;
14738;SDS011;7461;52.440;13.540;2024-02-21T06:12:10;19.63;;;13.88;;
14738;SDS011;7461;52.440;13.540;2024-02-21T06:14:37;18.20;;;13.40;;
14738;SDS011;7461;52.440;13.540;2024-02-21T06:17:04;21.95;;;14.98;;
14738;SDS011;7461;52.440;13.540;2024-02-21T06:19:32;21.23;;;13.98;;
14738;SDS011;7461;52.440;13.540;2024-02-21T06:21:59;22.15;;;15.98;;
14738;SDS011;7461;52.440;13.540;2024-02-21T06:24:26;18.35;;;15.23;;
14738;SDS011;7461;52.440;13.540;2024-02-21T06:26:55;16.10;;;14.38;;
14738;SDS011;7461;52.440;13.540;2024-02-21T06:29:22;18.95;;;13.45;;
14738;SDS011;7461;52.440;13.540;2024-02-21T06:31:49;17.85;;;12.32;;
14738;SDS011;7461;52.440;13.540;2024-02-21T06:34:19;15.85;;;12.02;;
14738;SDS011;7461;52.440;13.540;2024-02-21T06:36:46;16.77;;;12.05;;
14738;SDS011;7461;52.440;13.540;2024-02-21T06:39:14;23.35;;;15.95;;
14738;SDS011;7461;52.440;13.540;2024-02-21T06:41:41;21.58;;;16.27;;
14738;SDS011;7461;52.440;13.540;2024-02-21T06:44:09;24.65;;;17.67;;
14738;SDS011;7461;52.440;13.540;2024-02-21T06:46:37;24.08;;;15.77;;
14738;SDS011;7461;52.440;13.540;2024-02-21T06:49:04;25.40;;;14.43;;
14738;SDS011;7461;52.440;13.540;2024-02-21T06:51:31;21.85;;;15.10;;
14738;SDS011;7461;52.440;13.540;2024-02-21T06:53:59;22.90;;;15.40;;
14738;SDS011;7461;52.440;13.540;2024-02-21T06:56:27;21.98;;;15.15;;
14738;SDS011;7461;52.440;13.540;2024-02-21T06:58:54;19.77;;;14.48;;
14738;SDS011;7461;52.440;13.540;2024-02-21T07:01:22;28.75;;;16.45;;
14738;SDS011;7461;52.440;13.540;2024-02-21T07:03:50;21.13;;;17.10;;
14738;SDS011;7461;52.440;13.540;2024-02-21T07:06:17;21.83;;;15.27;;
14738;SDS011;7461;52.440;13.540;2024-02-21T07:08:44;22.90;;;13.63;;
14738;SDS011;7461;52.440;13.540;2024-02-21T07:11:11;17.33;;;15.15;;
14738;SDS011;7461;52.440;13.540;2024-02-21T07:13:39;23.52;;;14.48;;
14738;SDS011;7461;52.440;13.540;2024-02-21T07:16:06;20.83;;;13.93;;
14738;SDS011;7461;52.440;13.540;2024-02-21T07:18:35;18.77;;;14.68;;
14738;SDS011;7461;52.440;13.540;2024-02-21T07:21:02;16.65;;;14.45;;
14738;SDS011;7461;52.440;13.540;2024-02-21T07:23:29;17.27;;;13.57;;
14738;SDS011;7461;52.440;13.540;2024-02-21T07:25:56;24.10;;;13.70;;
14738;SDS011;7461;52.440;13.540;2024-02-21T07:28:24;22.55;;;13.50;;
14738;SDS011;7461;52.440;13.540;2024-02-21T07:30:51;20.27;;;13.27;;
14738;SDS011;7461;52.440;13.540;2024-02-21T07:33:18;13.80;;;12.38;;
14738;SDS011;7461;52.440;13.540;2024-02-21T07:35:47;15.70;;;12.75;;
14738;SDS011;7461;52.440;13.540;2024-02-21T07:38:14;15.75;;;11.65;;
14738;SDS011;7461;52.440;13.540;2024-02-21T07:40:44;18.48;;;14.73;;
14738;SDS011;7461;52.440;13.540;2024-02-21T07:43:11;20.38;;;13.25;;
14738;SDS011;7461;52.440;13.540;2024-02-21T07:45:38;16.40;;;14.45;;
14738;SDS011;7461;52.440;13.540;2024-02-21T07:48:05;17.13;;;13.90;;
14738;SDS011;7461;52.440;13.540;2024-02-21T07:50:33;17.63;;;14.32;;
14738;SDS011;7461;52.440;13.540;2024-02-21T07:53:01;14.70;;;12.38;;
14738;SDS011;7461;52.440;13.540;2024-02-21T07:55:28;14.63;;;12.13;;
14738;SDS011;7461;52.440;13.540;2024-02-21T07:57:56;18.48;;;12.45;;
14738;SDS011;7461;52.440;13.540;2024-02-21T08:00:23;14.75;;;13.32;;
14738;SDS011;7461;52.440;13.540;2024-02-21T08:02:50;20.73;;;14.05;;
14738;SDS011;7461;52.440;13.540;2024-02-21T08:05:17;20.25;;;13.63;;
14738;SDS011;7461;52.440;13.540;2024-02-21T08:07:44;13.77;;;11.63;;
14738;SDS011;7461;52.440;13.540;2024-02-21T08:10:13;14.50;;;12.90;;
14738;SDS011;7461;52.440;13.540;2024-02-21T08:12:40;15.52;;;13.85;;
14738;SDS011;7461;52.440;13.540;2024-02-21T08:15:08;16.90;;;13.70;;
14738;SDS011;7461;52.440;13.540;2024-02-21T08:17:35;19.30;;;13.93;;
14738;SDS011;7461;52.440;13.540;2024-02-21T08:20:03;14.98;;;13.60;;
14738;SDS011;7461;52.440;13.540;2024-02-21T08:22:30;16.15;;;14.60;;
14738;SDS011;7461;52.440;13.540;2024-02-21T08:24:58;16.77;;;14.10;;
14738;SDS011;7461;52.440;13.540;2024-02-21T08:27:27;15.68;;;12.13;;
14738;SDS011;7461;52.440;13.540;2024-02-21T08:29:54;18.38;;;13.48;;
14738;SDS011;7461;52.440;13.540;2024-02-21T08:32:21;18.55;;;13.52;;
14738;SDS011;7461;52.440;13.540;2024-02-21T08:34:48;17.38;;;13.80;;
14738;SDS011;7461;52.440;13.540;2024-02-21T08:37:15;17.25;;;12.25;;
14738;SDS011;7461;52.440;13.540;2024-02-21T08:39:42;15.73;;;14.13;;
14738;SDS011;7461;52.440;13.540;2024-02-21T08:42:10;23.50;;;13.48;;
14738;SDS011;7461;52.440;13.540;2024-02-21T08:44:38;21.20;;;14.70;;
14738;SDS011;7461;52.440;13.540;2024-02-21T08:47:07;15.30;;;12.13;;
14738;SDS011;7461;52.440;13.540;2024-02-21T08:49:35;15.15;;;13.68;;
14738;SDS011;7461;52.440;13.540;2024-02-21T08:52:02;17.73;;;12.40;;
14738;SDS011;7461;52.440;13.540;2024-02-21T08:54:30;15.05;;;13.35;;
14738;SDS011;7461;52.440;13.540;2024-02-21T08:56:57;19.77;;;14.73;;
14738;SDS011;7461;52.440;13.540;2024-02-21T08:59:24;15.10;;;13.50;;
14738;SDS011;7461;52.440;13.540;2024-02-21T09:01:54;17.70;;;13.93;;
14738;SDS011;7461;52.440;13.540;2024-02-21T09:04:21;16.63;;;13.90;;
14738;SDS011;7461;52.440;13.540;2024-02-21T09:06:48;19.50;;;15.48;;
14738;SDS011;7461;52.440;13.540;2024-02-21T09:09:17;15.73;;;14.10;;
14738;SDS011;7461;52.440;13.540;2024-02-21T09:11:45;17.10;;;14.38;;
14738;SDS011;7461;52.440;13.540;2024-02-21T09:14:12;14.98;;;13.45;;
14738;SDS011;7461;52.440;13.540;2024-02-21T09:16:39;16.95;;;14.40;;
14738;SDS011;7461;52.440;13.540;2024-02-21T09:19:08;17.75;;;15.32;;
14738;SDS011;7461;52.440;13.540;2024-02-21T09:21:36;18.90;;;14.40;;
14738;SDS011;7461;52.440;13.540;2024-02-21T09:24:03;17.98;;;13.45;;
14738;SDS011;7461;52.440;13.540;2024-02-21T09:26:31;16.00;;;12.15;;
14738;SDS011;7461;52.440;13.540;2024-02-21T09:29:01;20.83;;;14.98;;
14738;SDS011;7461;52.440;13.540;2024-02-21T09:31:29;18.70;;;14.23;;
14738;SDS011;7461;52.440;13.540;2024-02-21T09:33:56;15.85;;;13.40;;
14738;SDS011;7461;52.440;13.540;2024-02-21T09:36:24;17.13;;;15.45;;
14738;SDS011;7461;52.440;13.540;2024-02-21T09:38:52;18.88;;;14.65;;
14738;SDS011;7461;52.440;13.540;2024-02-21T09:41:22;18.35;;;15.10;;
14738;SDS011;7461;52.440;13.540;2024-02-21T09:43:52;15.70;;;14.02;;
14738;SDS011;7461;52.440;13.540;2024-02-21T09:46:21;16.80;;;15.27;;
14738;SDS011;7461;52.440;13.540;2024-02-21T09:49:01;16.60;;;14.88;;
14738;SDS011;7461;52.440;13.540;2024-02-21T09:51:35;19.60;;;15.43;;
14738;SDS011;7461;52.440;13.540;2024-02-21T09:54:03;27.00;;;15.90;;
14738;SDS011;7461;52.440;13.540;2024-02-21T09:56:31;17.75;;;16.02;;
14738;SDS011;7461;52.440;13.540;2024-02-21T09:58:58;19.88;;;14.52;;
14738;SDS011;7461;52.440;13.540;2024-02-21T10:01:26;17.85;;;14.45;;
14738;SDS011;7461;52.440;13.540;2024-02-21T10:03:53;16.00;;;14.55;;
14738;SDS011;7461;52.440;13.540;2024-02-21T10:06:22;15.38;;;14.15;;
14738;SDS011;7461;52.440;13.540;2024-02-21T10:08:53;18.92;;;13.85;;
14738;SDS011;7461;52.440;13.540;2024-02-21T10:11:23;16.58;;;13.82;;
14738;SDS011;7461;52.440;13.540;2024-02-21T10:13:50;17.45;;;15.70;;
14738;SDS011;7461;52.440;13.540;2024-02-21T10:16:17;17.58;;;14.90;;
14738;SDS011;7461;52.440;13.540;2024-02-21T10:18:45;17.92;;;16.05;;
14738;SDS011;7461;52.440;13.540;2024-02-21T10:21:12;15.43;;;13.95;;
14738;SDS011;7461;52.440;13.540;2024-02-21T10:23:43;16.70;;;15.10;;
14738;SDS011;7461;52.440;13.540;2024-02-21T10:26:12;23.55;;;15.57;;
14738;SDS011;7461;52.440;13.540;2024-02-21T10:28:39;16.10;;;14.43;;
14738;SDS011;7461;52.440;13.540;2024-02-21T10:31:08;16.55;;;14.85;;
14738;SDS011;7461;52.440;13.540;2024-02-21T10:33:36;18.13;;;16.33;;
14738;SDS011;7461;52.440;13.540;2024-02-21T10:36:07;16.13;;;14.35;;
14738;SDS011;7461;52.440;13.540;2024-02-21T10:38:35;17.83;;;14.48;;
14738;SDS011;7461;52.440;13.540;2024-02-21T10:41:03;18.00;;;14.65;;
14738;SDS011;7461;52.440;13.540;2024-02-21T10:43:33;15.95;;;14.52;;
14738;SDS011;7461;52.440;13.540;2024-02-21T10:46:03;18.25;;;13.82;;
14738;SDS011;7461;52.440;13.540;2024-02-21T10:48:32;16.75;;;14.63;;
14738;SDS011;7461;52.440;13.540;2024-02-21T10:51:02;17.95;;;15.85;;
14738;SDS011;7461;52.440;13.540;2024-02-21T10:53:34;16.83;;;13.57;;
14738;SDS011;7461;52.440;13.540;2024-02-21T10:56:05;15.90;;;14.05;;
14738;SDS011;7461;52.440;13.540;2024-02-21T10:58:35;16.02;;;14.40;;
14738;SDS011;7461;52.440;13.540;2024-02-21T11:01:03;15.30;;;13.82;;
14738;SDS011;7461;52.440;13.540;2024-02-21T11:03:30;15.77;;;14.23;;
14738;SDS011;7461;52.440;13.540;2024-02-21T11:05:57;13.43;;;12.10;;
14738;SDS011;7461;52.440;13.540;2024-02-21T11:08:25;17.00;;;14.07;;
14738;SDS011;7461;52.440;13.540;2024-02-21T11:10:56;14.45;;;13.27;;
14738;SDS011;7461;52.440;13.540;2024-02-21T11:13:29;15.60;;;13.05;;
14738;SDS011;7461;52.440;13.540;2024-02-21T11:16:06;18.38;;;13.70;;
14738;SDS011;7461;52.440;13.540;2024-02-21T11:18:34;14.70;;;13.13;;
14738;SDS011;7461;52.440;13.540;2024-02-21T11:21:01;16.13;;;12.82;;
14738;SDS011;7461;52.440;13.540;2024-02-21T11:23:29;13.68;;;12.27;;
14738;SDS011;7461;52.440;13.540;2024-02-21T11:26:06;15.95;;;14.40;;
14738;SDS011;7461;52.440;13.540;2024-02-21T11:28:33;13.57;;;12.05;;
14738;SDS011;7461;52.440;13.540;2024-02-21T11:31:07;17.23;;;12.43;;
14738;SDS011;7461;52.440;13.540;2024-02-21T11:33:35;13.48;;;11.90;;
14738;SDS011;7461;52.440;13.540;2024-02-21T11:36:02;14.30;;;11.52;;
14738;SDS011;7461;52.440;13.540;2024-02-21T11:38:29;14.60;;;13.13;;
14738;SDS011;7461;52.440;13.540;2024-02-21T11:40:57;14.40;;;11.30;;
14738;SDS011;7461;52.440;13.540;2024-02-21T11:43:24;11.25;;;10.23;;
14738;SDS011;7461;52.440;13.540;2024-02-21T11:45:58;11.95;;;10.90;;
14738;SDS011;7461;52.440;13.540;2024-02-21T11:48:26;11.15;;;10.00;;
14738;SDS011;7461;52.440;13.540;2024-02-21T11:50:54;14.93;;;11.95;;
14738;SDS011;7461;52.440;13.540;2024-02-21T11:53:21;12.52;;;11.27;;
14738;SDS011;7461;52.440;13.540;2024-02-21T11:55:49;12.05;;;10.82;;
14738;SDS011;7461;52.440;13.540;2024-02-21T11:58:16;13.07;;;11.57;;
14738;SDS011;7461;52.440;13.540;2024-02-21T12:00:43;11.05;;;9.75;;
14738;SDS011;7461;52.440;13.540;2024-02-21T12:03:10;11.95;;;10.60;;
14738;SDS011;7461;52.440;13.540;2024-02-21T12:05:39;12.52;;;9.90;;
14738;SDS011;7461;52.440;13.540;2024-02-21T12:08:07;10.23;;;8.90;;
14738;SDS011;7461;52.440;13.540;2024-02-21T12:10:35;10.02;;;9.02;;
14738;SDS011;7461;52.440;13.540;2024-02-21T12:13:06;10.50;;;9.32;;
14738;SDS011;7461;52.440;13.540;2024-02-21T12:15:33;10.65;;;7.78;;
14738;SDS011;7461;52.440;13.540;2024-02-21T12:18:01;8.90;;;8.25;;
14738;SDS011;7461;52.440;13.540;2024-02-21T12:20:28;13.82;;;9.80;;
14738;SDS011;7461;52.440;13.540;2024-02-21T12:22:58;12.88;;;8.77;;
14738;SDS011;7461;52.440;13.540;2024-02-21T12:25:27;13.05;;;10.30;;
14738;SDS011;7461;52.440;13.540;2024-02-21T12:27:55;8.00;;;7.32;;
14738;SDS011;7461;52.440;13.540;2024-02-21T12:30:23;10.05;;;6.85;;
14738;SDS011;7461;52.440;13.540;2024-02-21T12:32:50;7.72;;;6.55;;
14738;SDS011;7461;52.440;13.540;2024-02-21T12:35:18;8.02;;;7.13;;
14738;SDS011;7461;52.440;13.540;2024-02-21T12:37:45;7.43;;;6.88;;
14738;SDS011;7461;52.440;13.540;2024-02-21T12:40:14;7.40;;;6.68;;
14738;SDS011;7461;52.440;13.540;2024-02-21T12:42:41;10.43;;;6.47;;
14738;SDS011;7461;52.440;13.540;2024-02-21T12:45:08;9.40;;;6.47;;
14738;SDS011;7461;52.440;13.540;2024-02-21T12:47:36;10.10;;;7.00;;
14738;SDS011;7461;52.440;13.540;2024-02-21T12:50:04;9.38;;;6.95;;
14738;SDS011;7461;52.440;13.540;2024-02-21T12:52:32;7.57;;;6.90;;
14738;SDS011;7461;52.440;13.540;2024-02-21T12:54:59;8.48;;;7.78;;
14738;SDS011;7461;52.440;13.540;2024-02-21T12:57:27;9.70;;;8.70;;
14738;SDS011;7461;52.440;13.540;2024-02-21T12:59:55;8.88;;;8.15;;
14738;SDS011;7461;52.440;13.540;2024-02-21T13:02:22;9.75;;;8.68;;
14738;SDS011;7461;52.440;13.540;2024-02-21T13:04:50;10.00;;;9.00;;
14738;SDS011;7461;52.440;13.540;2024-02-21T13:07:17;10.30;;;9.13;;
14738;SDS011;7461;52.440;13.540;2024-02-21T13:09:44;10.25;;;8.57;;
14738;SDS011;7461;52.440;13.540;2024-02-21T13:12:12;10.80;;;8.60;;
14738;SDS011;7461;52.440;13.540;2024-02-21T13:14:40;9.63;;;8.45;;
14738;SDS011;7461;52.440;13.540;2024-02-21T13:17:09;10.43;;;7.72;;
14738;SDS011;7461;52.440;13.540;2024-02-21T13:19:36;11.82;;;8.13;;
14738;SDS011;7461;52.440;13.540;2024-02-21T13:22:03;11.85;;;7.97;;
14738;SDS011;7461;52.440;13.540;2024-02-21T13:24:31;9.30;;;8.43;;
14738;SDS011;7461;52.440;13.540;2024-02-21T13:26:59;9.45;;;8.50;;
14738;SDS011;7461;52.440;13.540;2024-02-21T13:29:26;12.30;;;9.77;;
14738;SDS011;7461;52.440;13.540;2024-02-21T13:31:55;14.07;;;10.45;;
14738;SDS011;7461;52.440;13.540;2024-02-21T13:34:23;10.45;;;8.27;;
14738;SDS011;7461;52.440;13.540;2024-02-21T13:36:50;9.32;;;8.05;;
14738;SDS011;7461;52.440;13.540;2024-02-21T13:39:17;10.82;;;9.35;;
14738;SDS011;7461;52.440;13.540;2024-02-21T13:41:44;10.40;;;9.35;;
14738;SDS011;7461;52.440;13.540;2024-02-21T13:44:12;9.93;;;8.85;;
14738;SDS011;7461;52.440;13.540;2024-02-21T13:46:39;11.02;;;8.45;;
14738;SDS011;7461;52.440;13.540;2024-02-21T13:49:07;9.70;;;8.90;;
14738;SDS011;7461;52.440;13.540;2024-02-21T13:51:35;9.00;;;8.13;;
14738;SDS011;7461;52.440;13.540;2024-02-21T13:54:02;8.98;;;7.47;;
14738;SDS011;7461;52.440;13.540;2024-02-21T13:56:30;10.68;;;7.18;;
14738;SDS011;7461;52.440;13.540;2024-02-21T13:58:57;10.10;;;7.97;;
14738;SDS011;7461;52.440;13.540;2024-02-21T14:01:26;7.95;;;7.03;;
14738;SDS011;7461;52.440;13.540;2024-02-21T14:03:54;8.07;;;6.95;;
14738;SDS011;7461;52.440;13.540;2024-02-21T14:06:22;6.68;;;6.20;;
14738;SDS011;7461;52.440;13.540;2024-02-21T14:08:49;8.40;;;6.72;;
14738;SDS011;7461;52.440;13.540;2024-02-21T14:11:17;7.05;;;6.35;;
14738;SDS011;7461;52.440;13.540;2024-02-21T14:13:44;8.32;;;7.57;;
14738;SDS011;7461;52.440;13.540;2024-02-21T14:16:11;8.13;;;6.60;;
14738;SDS011;7461;52.440;13.540;2024-02-21T14:18:39;9.60;;;6.68;;
14738;SDS011;7461;52.440;13.540;2024-02-21T14:21:07;13.07;;;7.25;;
14738;SDS011;7461;52.440;13.540;2024-02-21T14:23:37;7.25;;;5.97;;
14738;SDS011;7461;52.440;13.540;2024-02-21T14:26:05;8.77;;;6.30;;
14738;SDS011;7461;52.440;13.540;2024-02-21T14:28:32;9.55;;;6.57;;
14738;SDS011;7461;52.440;13.540;2024-02-21T14:30:59;8.18;;;6.53;;